createdAt,value
2022-12-14T00:00:49.556Z,22.50
2022-12-14T00:03:22.870Z,22.60
2022-12-14T00:05:51.917Z,24.50
2022-12-14T00:08:21.546Z,22.93
2022-12-14T00:10:51.280Z,21.67
2022-12-14T00:13:22.058Z,21.50
2022-12-14T00:15:51.802Z,21.40
2022-12-14T00:18:22.695Z,21.57
2022-12-14T00:20:50.465Z,22.37
2022-12-14T00:23:20.218Z,22.10
2022-12-14T00:25:49.530Z,24.03
2022-12-14T00:28:19.460Z,21.93
2022-12-14T00:30:58.495Z,22.73
2022-12-14T00:33:24.640Z,21.77
2022-12-14T00:35:51.595Z,22.00
2022-12-14T00:38:21.613Z,21.37
2022-12-14T00:40:52.296Z,21.50
2022-12-14T00:43:21.950Z,22.20
2022-12-14T00:45:51.506Z,21.10
2022-12-14T00:48:22.362Z,20.97
2022-12-14T00:50:52.921Z,20.83
2022-12-14T00:53:20.812Z,18.50
2022-12-14T00:55:49.763Z,18.90
2022-12-14T00:58:24.414Z,20.00
2022-12-14T01:01:09.580Z,20.13
2022-12-14T01:03:35.763Z,21.00
2022-12-14T01:06:19.810Z,21.07
2022-12-14T01:08:46.427Z,18.23
2022-12-14T01:11:13.061Z,17.83
2022-12-14T01:13:40.309Z,18.17
2022-12-14T01:16:13.125Z,18.60
2022-12-14T01:18:40.470Z,18.77
2022-12-14T01:21:10.808Z,18.30
2022-12-14T01:23:46.207Z,18.37
2022-12-14T01:26:15.933Z,17.67
2022-12-14T01:28:42.130Z,17.57
2022-12-14T01:31:14.168Z,17.43
2022-12-14T01:33:44.924Z,18.13
2022-12-14T01:36:16.722Z,17.17
2022-12-14T01:38:43.449Z,17.57
2022-12-14T01:41:29.526Z,16.30
2022-12-14T01:44:21.339Z,15.90
2022-12-14T01:47:00.678Z,16.10
2022-12-14T01:49:36.128Z,16.60
2022-12-14T01:52:16.931Z,16.33
2022-12-14T01:55:29.021Z,16.83
2022-12-14T01:58:02.864Z,16.93
2022-12-14T02:00:32.852Z,17.20
2022-12-14T02:03:10.097Z,16.30
2022-12-14T02:05:43.208Z,17.13
2022-12-14T02:08:11.420Z,16.73
2022-12-14T02:10:43.334Z,16.77
2022-12-14T02:13:39.879Z,15.03
2022-12-14T02:16:06.159Z,15.97
2022-12-14T02:18:39.958Z,15.13
2022-12-14T02:21:28.680Z,15.80
2022-12-14T02:24:16.510Z,14.40
2022-12-14T02:26:55.629Z,14.93
2022-12-14T02:29:44.586Z,14.57
2022-12-14T02:32:20.296Z,13.77
2022-12-14T02:35:17.619Z,14.00
2022-12-14T02:38:04.398Z,13.43
2022-12-14T02:40:50.504Z,14.10
2022-12-14T02:43:32.701Z,14.50
2022-12-14T02:46:04.242Z,14.70
2022-12-14T02:48:47.313Z,13.63
2022-12-14T02:51:17.777Z,15.57
2022-12-14T02:54:01.536Z,13.70
2022-12-14T02:56:36.727Z,13.47
2022-12-14T02:59:07.158Z,13.50
2022-12-14T03:01:38.439Z,14.60
2022-12-14T03:04:08.703Z,13.13
2022-12-14T03:06:38.636Z,12.57
2022-12-14T03:09:12.977Z,12.70
2022-12-14T03:11:50.924Z,13.37
2022-12-14T03:14:27.314Z,11.07
2022-12-14T03:17:04.370Z,10.30
2022-12-14T03:19:39.873Z,8.73
2022-12-14T03:22:14.404Z,8.47
2022-12-14T03:24:49.552Z,8.70
2022-12-14T03:27:23.568Z,8.27
2022-12-14T03:30:08.493Z,7.90
2022-12-14T03:32:44.305Z,7.90
2022-12-14T03:35:18.683Z,8.83
2022-12-14T03:38:36.993Z,8.90
2022-12-14T03:41:22.419Z,8.17
2022-12-14T03:44:11.969Z,7.80
2022-12-14T03:46:51.602Z,7.80
2022-12-14T03:50:00.092Z,7.30
2022-12-14T03:52:36.824Z,7.10
2022-12-14T03:55:06.717Z,7.60
2022-12-14T03:58:05.188Z,7.60
2022-12-14T04:00:38.059Z,6.93
2022-12-14T04:03:28.456Z,6.90
2022-12-14T04:06:05.686Z,9.40
2022-12-14T04:08:43.020Z,8.10
2022-12-14T04:11:33.659Z,8.03
2022-12-14T04:14:31.992Z,7.40
2022-12-14T04:17:25.288Z,6.80
2022-12-14T04:19:59.976Z,6.93
2022-12-14T04:22:33.676Z,6.57
2022-12-14T04:25:43.836Z,7.17
2022-12-14T04:28:34.091Z,7.27
2022-12-14T04:31:09.473Z,8.00
2022-12-14T04:33:47.771Z,8.83
2022-12-14T04:36:31.567Z,7.23
2022-12-14T04:39:14.777Z,7.60
2022-12-14T04:41:49.135Z,7.00
2022-12-14T04:44:24.619Z,7.40
2022-12-14T04:46:55.656Z,6.87
2022-12-14T04:49:31.301Z,5.90
2022-12-14T04:52:10.945Z,7.20
2022-12-14T04:54:47.384Z,7.70
2022-12-14T04:57:30.850Z,6.90
2022-12-14T04:59:57.867Z,6.10
2022-12-14T05:02:44.919Z,6.57
2022-12-14T05:05:13.676Z,7.30
2022-12-14T05:07:49.216Z,7.83
2022-12-14T05:10:43.333Z,7.57
2022-12-14T05:13:19.436Z,7.67
2022-12-14T05:15:54.932Z,7.50
2022-12-14T05:18:42.744Z,7.40
2022-12-14T05:21:34.275Z,6.60
2022-12-14T05:24:03.741Z,8.82
2022-12-14T05:26:30.122Z,8.13
2022-12-14T05:28:56.445Z,8.27
2022-12-14T05:31:23.307Z,7.30
2022-12-14T05:33:49.364Z,7.47
2022-12-14T05:36:15.481Z,7.17
2022-12-14T05:38:41.545Z,7.77
2022-12-14T05:41:07.581Z,8.27
2022-12-14T05:43:33.627Z,7.77
2022-12-14T05:46:00.986Z,7.20
2022-12-14T05:48:27.090Z,7.53
2022-12-14T05:50:53.155Z,7.50
2022-12-14T05:53:19.245Z,7.87
2022-12-14T05:55:51.591Z,7.07
2022-12-14T05:58:17.811Z,8.10
2022-12-14T06:00:43.856Z,11.17
2022-12-14T06:03:09.958Z,11.77
2022-12-14T06:05:36.076Z,9.10
2022-12-14T06:08:02.145Z,11.23
2022-12-14T06:10:28.181Z,10.90
2022-12-14T06:12:56.929Z,10.80
2022-12-14T06:15:23.278Z,9.53
2022-12-14T06:17:49.653Z,9.10
2022-12-14T06:20:15.986Z,9.47
2022-12-14T06:22:47.391Z,8.73
2022-12-14T06:25:13.878Z,8.07
2022-12-14T06:27:39.908Z,8.90
2022-12-14T06:30:06.666Z,8.30
2022-12-14T06:32:32.748Z,8.30
2022-12-14T06:34:58.791Z,8.57
2022-12-14T06:37:24.831Z,8.20
2022-12-14T06:39:54.260Z,8.73
2022-12-14T06:42:20.716Z,8.80
2022-12-14T06:44:46.843Z,8.10
2022-12-14T06:47:12.938Z,8.60
2022-12-14T06:49:38.977Z,8.30
2022-12-14T06:52:05.007Z,8.73
2022-12-14T06:54:31.129Z,8.53
2022-12-14T06:56:57.153Z,8.90
2022-12-14T06:59:23.189Z,8.70
2022-12-14T07:01:49.863Z,9.17
2022-12-14T07:04:18.007Z,8.57
2022-12-14T07:06:44.064Z,9.07
2022-12-14T07:09:12.998Z,8.83
2022-12-14T07:11:39.624Z,8.90
2022-12-14T07:14:06.476Z,9.80
2022-12-14T07:16:34.272Z,9.40
2022-12-14T07:19:00.546Z,9.30
2022-12-14T07:21:26.731Z,9.97
2022-12-14T07:23:52.906Z,9.83
2022-12-14T07:26:23.205Z,9.70
2022-12-14T07:28:49.839Z,10.03
2022-12-14T07:31:17.862Z,9.67
2022-12-14T07:33:44.173Z,10.27
2022-12-14T07:36:12.564Z,11.27
2022-12-14T07:38:39.809Z,9.87
2022-12-14T07:41:09.284Z,9.90
2022-12-14T07:43:36.406Z,10.07
2022-12-14T07:46:04.372Z,10.27
2022-12-14T07:48:31.145Z,10.13
2022-12-14T07:51:08.545Z,9.80
2022-12-14T07:53:35.697Z,10.13
2022-12-14T07:56:03.963Z,10.53
2022-12-14T07:58:31.504Z,10.20
2022-12-14T08:01:25.993Z,9.90
2022-12-14T08:03:54.378Z,11.43
2022-12-14T08:06:22.107Z,9.83
2022-12-14T08:08:49.286Z,10.57
2022-12-14T08:11:17.324Z,11.13
2022-12-14T08:13:43.500Z,10.70
2022-12-14T08:16:11.855Z,10.67
2022-12-14T08:18:38.105Z,10.27
2022-12-14T08:21:06.085Z,9.93
2022-12-14T08:23:33.476Z,11.57
2022-12-14T08:26:00.870Z,11.60
2022-12-14T08:28:28.706Z,11.50
2022-12-14T08:30:55.499Z,11.93
2022-12-14T08:33:22.006Z,11.73
2022-12-14T08:35:48.484Z,12.90
2022-12-14T08:38:14.888Z,12.57
2022-12-14T08:40:41.606Z,12.23
2022-12-14T08:43:08.804Z,12.30
2022-12-14T08:45:35.489Z,13.47
2022-12-14T08:48:01.825Z,13.50
2022-12-14T08:50:31.244Z,12.90
2022-12-14T08:52:57.285Z,13.00
2022-12-14T08:55:28.243Z,13.90
2022-12-14T08:57:55.356Z,13.03
2022-12-14T09:00:21.429Z,12.03
2022-12-14T09:02:50.660Z,12.27
2022-12-14T09:05:16.767Z,11.27
2022-12-14T09:07:42.793Z,10.60
2022-12-14T09:10:08.920Z,10.40
2022-12-14T09:12:35.521Z,10.57
2022-12-14T09:15:01.553Z,10.50
2022-12-14T09:17:27.592Z,11.40
2022-12-14T09:19:53.613Z,10.50
2022-12-14T09:22:19.681Z,11.00
2022-12-14T09:24:45.744Z,9.50
2022-12-14T09:27:11.805Z,10.37
2022-12-14T09:29:37.837Z,10.43
2022-12-14T09:32:04.310Z,9.73
2022-12-14T09:34:30.802Z,8.57
2022-12-14T09:36:56.909Z,9.60
2022-12-14T09:39:24.142Z,8.60
2022-12-14T09:42:16.166Z,8.80
2022-12-14T09:44:51.864Z,9.70
2022-12-14T09:47:27.640Z,10.10
2022-12-14T09:49:55.443Z,9.73
2022-12-14T09:52:52.980Z,16.70
2022-12-14T09:55:30.925Z,10.80
2022-12-14T09:58:00.746Z,10.77
2022-12-14T10:00:33.089Z,16.70
2022-12-14T10:03:38.237Z,12.17
2022-12-14T10:06:28.840Z,10.80
2022-12-14T10:09:24.436Z,11.60
2022-12-14T10:12:34.383Z,11.30
2022-12-14T10:15:34.794Z,10.13
2022-12-14T10:18:58.286Z,9.87
2022-12-14T10:21:22.356Z,10.67
2022-12-14T10:23:54.454Z,10.80
2022-12-14T10:26:23.162Z,11.10
2022-12-14T10:29:00.980Z,11.77
2022-12-14T10:31:55.264Z,13.00
2022-12-14T10:34:23.717Z,12.27
2022-12-14T10:37:06.227Z,11.80
2022-12-14T10:39:32.236Z,11.80
2022-12-14T10:42:03.655Z,11.43
2022-12-14T10:44:42.689Z,11.33
2022-12-14T10:47:22.342Z,11.10
2022-12-14T10:49:54.904Z,10.47
2022-12-14T10:52:26.926Z,11.20
2022-12-14T10:55:00.081Z,10.67
2022-12-14T10:57:27.123Z,11.57
2022-12-14T11:00:07.906Z,11.10
2022-12-14T11:02:39.222Z,11.23
2022-12-14T11:05:19.145Z,11.20
2022-12-14T11:07:48.891Z,10.93
2022-12-14T11:10:18.573Z,10.80
2022-12-14T11:13:05.049Z,12.10
2022-12-14T11:15:37.080Z,11.17
2022-12-14T11:18:27.472Z,11.20
2022-12-14T11:21:03.179Z,12.37
2022-12-14T11:23:30.113Z,12.50
2022-12-14T11:25:58.644Z,11.50
2022-12-14T11:28:38.269Z,12.37
2022-12-14T11:31:08.041Z,11.90
2022-12-14T11:33:39.943Z,11.40
2022-12-14T11:36:07.453Z,11.43
2022-12-14T11:38:33.768Z,12.30
2022-12-14T11:41:05.890Z,11.83
2022-12-14T11:43:37.944Z,12.73
2022-12-14T11:46:04.622Z,11.83
2022-12-14T11:48:31.019Z,12.17
2022-12-14T11:51:12.247Z,11.83
2022-12-14T11:53:39.051Z,12.17
2022-12-14T11:56:08.306Z,12.07
2022-12-14T11:58:46.222Z,11.90
2022-12-14T12:01:15.258Z,12.03
2022-12-14T12:03:50.015Z,11.67
2022-12-14T12:06:22.090Z,11.23
2022-12-14T12:08:55.133Z,11.40
2022-12-14T12:11:23.689Z,13.20
2022-12-14T12:13:51.920Z,12.17
2022-12-14T12:16:22.512Z,12.10
2022-12-14T12:19:26.837Z,12.30
2022-12-14T12:21:54.202Z,12.00
2022-12-14T12:24:28.044Z,12.80
2022-12-14T12:27:11.308Z,10.90
2022-12-14T12:29:57.696Z,11.63
2022-12-14T12:32:34.218Z,10.87
2022-12-14T12:35:13.485Z,10.67
2022-12-14T12:37:44.136Z,10.47
2022-12-14T12:40:25.406Z,11.70
2022-12-14T12:42:58.450Z,10.57
2022-12-14T12:45:29.425Z,10.87
2022-12-14T12:48:01.940Z,10.70
2022-12-14T12:50:31.803Z,10.10
2022-12-14T12:53:03.574Z,10.77
2022-12-14T12:55:32.546Z,10.00
2022-12-14T12:58:02.310Z,10.47
2022-12-14T13:00:29.833Z,9.57
2022-12-14T13:03:01.358Z,10.00
2022-12-14T13:05:46.108Z,9.90
2022-12-14T13:08:19.112Z,9.67
2022-12-14T13:11:17.257Z,10.03
2022-12-14T13:13:34.725Z,9.77
2022-12-14T13:16:26.904Z,10.90
2022-12-14T13:19:18.614Z,10.13
2022-12-14T13:21:49.948Z,9.60
2022-12-14T13:24:18.518Z,9.80
2022-12-14T13:27:00.679Z,10.17
2022-12-14T13:29:48.653Z,9.03
2022-12-14T13:32:37.226Z,9.10
2022-12-14T13:35:36.428Z,8.27
2022-12-14T13:38:47.025Z,8.90
2022-12-14T13:41:34.479Z,9.03
2022-12-14T13:44:07.010Z,9.60
2022-12-14T13:46:33.205Z,8.97
2022-12-14T13:49:02.754Z,11.00
2022-12-14T13:51:34.581Z,10.30
2022-12-14T13:54:02.235Z,10.00
2022-12-14T13:56:34.400Z,10.27
2022-12-14T13:59:03.205Z,10.27
2022-12-14T14:01:48.018Z,9.47
2022-12-14T14:04:17.741Z,9.37
2022-12-14T14:06:48.982Z,9.53
2022-12-14T14:09:48.706Z,10.80
2022-12-14T14:12:38.574Z,9.90
2022-12-14T14:15:07.640Z,10.43
2022-12-14T14:17:38.007Z,10.23
2022-12-14T14:20:32.763Z,9.80
2022-12-14T14:23:14.624Z,10.97
2022-12-14T14:25:46.246Z,10.10
2022-12-14T14:28:22.448Z,11.10
2022-12-14T14:30:51.861Z,10.57
2022-12-14T14:33:46.441Z,11.47
2022-12-14T14:36:16.252Z,10.10
2022-12-14T14:38:42.793Z,10.80
2022-12-14T14:41:19.413Z,10.70
2022-12-14T14:43:51.901Z,11.27
2022-12-14T14:46:22.891Z,11.40
2022-12-14T14:48:52.448Z,10.67
2022-12-14T14:51:27.665Z,10.63
2022-12-14T14:54:37.002Z,10.73
2022-12-14T14:57:01.901Z,10.53
2022-12-14T14:59:38.806Z,10.60
2022-12-14T15:02:23.121Z,9.30
2022-12-14T15:04:51.676Z,10.90
2022-12-14T15:07:23.828Z,11.63
2022-12-14T15:10:22.350Z,12.70
2022-12-14T15:12:51.735Z,13.00
2022-12-14T15:15:22.781Z,12.57
2022-12-14T15:17:49.765Z,12.30
2022-12-14T15:20:25.013Z,12.80
2022-12-14T15:22:52.905Z,11.60
2022-12-14T15:25:22.980Z,11.80
2022-12-14T15:27:49.898Z,11.90
2022-12-14T15:30:20.867Z,11.13
2022-12-14T15:33:12.468Z,11.80
2022-12-14T15:35:39.604Z,13.00
2022-12-14T15:38:07.302Z,14.30
2022-12-14T15:40:34.593Z,14.37
2022-12-14T15:43:22.742Z,13.20
2022-12-14T15:45:55.087Z,13.33
2022-12-14T15:48:24.959Z,13.00
2022-12-14T15:50:56.916Z,14.23
2022-12-14T15:53:29.346Z,17.33
2022-12-14T15:56:01.921Z,17.67
2022-12-14T15:58:36.896Z,16.93
2022-12-14T16:01:24.216Z,15.37
2022-12-14T16:03:53.939Z,15.50
2022-12-14T16:06:21.483Z,17.50
2022-12-14T16:08:53.463Z,17.20
2022-12-14T16:11:24.423Z,15.80
2022-12-14T16:13:50.773Z,15.50
2022-12-14T16:16:17.147Z,15.10
2022-12-14T16:18:50.860Z,16.93
2022-12-14T16:21:32.724Z,24.70
2022-12-14T16:23:59.765Z,23.23
2022-12-14T16:26:31.963Z,19.73
2022-12-14T16:29:20.621Z,18.70
2022-12-14T16:31:48.005Z,20.73
2022-12-14T16:34:19.801Z,19.53
2022-12-14T16:37:08.145Z,19.50
2022-12-14T16:39:38.157Z,18.50
2022-12-14T16:42:06.252Z,16.37
2022-12-14T16:44:37.598Z,17.33
2022-12-14T16:47:12.650Z,18.80
2022-12-14T16:49:42.833Z,17.70
2022-12-14T16:52:09.105Z,18.43
2022-12-14T16:54:37.041Z,16.93
2022-12-14T16:57:11.081Z,16.80
2022-12-14T16:59:45.362Z,16.20
2022-12-14T17:02:25.733Z,16.63
2022-12-14T17:04:52.094Z,16.70
2022-12-14T17:07:21.802Z,16.13
2022-12-14T17:09:47.877Z,15.80
2022-12-14T17:12:15.000Z,15.43
2022-12-14T17:14:47.582Z,14.23
2022-12-14T17:17:19.268Z,14.90
2022-12-14T17:19:45.434Z,14.20
2022-12-14T17:22:16.776Z,16.30
2022-12-14T17:24:43.918Z,14.90
2022-12-14T17:27:15.459Z,19.97
2022-12-14T17:29:41.667Z,16.23
2022-12-14T17:32:11.304Z,17.53
2022-12-14T17:34:37.886Z,17.20
2022-12-14T17:37:15.870Z,16.83
2022-12-14T17:39:42.076Z,16.77
2022-12-14T17:42:10.739Z,17.07
2022-12-14T17:44:38.729Z,17.37
2022-12-14T17:47:04.782Z,17.60
2022-12-14T17:49:33.623Z,18.17
2022-12-14T17:52:01.645Z,15.50
2022-12-14T17:54:29.289Z,16.40
2022-12-14T17:56:55.602Z,17.00
2022-12-14T17:59:21.724Z,15.30
2022-12-14T18:01:48.081Z,15.20
2022-12-14T18:04:15.638Z,15.03
2022-12-14T18:06:41.808Z,15.20
2022-12-14T18:09:07.972Z,17.67
2022-12-14T18:11:34.453Z,17.40
2022-12-14T18:14:00.878Z,16.57
2022-12-14T18:16:29.005Z,16.47
2022-12-14T18:18:55.482Z,16.50
2022-12-14T18:21:27.529Z,16.10
2022-12-14T18:23:54.006Z,20.93
2022-12-14T18:26:20.885Z,21.63
2022-12-14T18:28:48.127Z,21.83
2022-12-14T18:31:32.033Z,20.37
2022-12-14T18:33:58.153Z,21.90
2022-12-14T18:36:24.214Z,19.97
2022-12-14T18:38:51.117Z,21.13
2022-12-14T18:41:20.092Z,21.60
2022-12-14T18:43:47.215Z,22.50
2022-12-14T18:46:13.717Z,20.97
2022-12-14T18:48:40.671Z,21.27
2022-12-14T18:51:09.526Z,21.00
2022-12-14T18:53:35.577Z,19.80
2022-12-14T18:56:03.138Z,21.63
2022-12-14T18:58:29.380Z,20.80
2022-12-14T19:00:57.925Z,21.80
2022-12-14T19:03:25.024Z,19.90
2022-12-14T19:05:51.281Z,20.80
2022-12-14T19:08:17.614Z,23.20
2022-12-14T19:10:45.868Z,22.90
2022-12-14T19:13:25.395Z,20.77
2022-12-14T19:15:52.968Z,20.23
2022-12-14T19:18:19.141Z,19.03
2022-12-14T19:20:45.201Z,21.20
2022-12-14T19:23:17.435Z,21.70
2022-12-14T19:25:43.937Z,21.27
2022-12-14T19:30:57.373Z,23.57
2022-12-14T19:33:24.742Z,27.87
2022-12-14T19:35:50.838Z,23.40
2022-12-14T19:38:17.742Z,25.00
2022-12-14T19:40:55.170Z,22.80
2022-12-14T19:43:21.208Z,22.00
2022-12-14T19:45:47.253Z,23.67
2022-12-14T19:48:13.685Z,28.17
2022-12-14T19:50:39.834Z,28.60
2022-12-14T19:53:05.883Z,29.70
2022-12-14T19:55:31.955Z,24.43
2022-12-14T19:57:58.013Z,22.63
2022-12-14T20:00:24.072Z,21.20
2022-12-14T20:02:50.347Z,20.33
2022-12-14T20:05:16.726Z,20.50
2022-12-14T20:07:43.992Z,21.00
2022-12-14T20:10:10.155Z,21.53
2022-12-14T20:12:36.608Z,20.53
2022-12-14T20:15:03.489Z,20.67
2022-12-14T20:17:29.625Z,21.37
2022-12-14T20:19:55.714Z,20.50
2022-12-14T20:22:21.754Z,20.63
2022-12-14T20:24:49.030Z,23.73
2022-12-14T20:27:15.254Z,23.30
2022-12-14T20:29:41.511Z,25.23
2022-12-14T20:32:08.013Z,24.43
2022-12-14T20:34:37.825Z,23.00
2022-12-14T20:37:04.543Z,24.53
2022-12-14T20:39:30.572Z,20.97
2022-12-14T20:41:56.596Z,20.60
2022-12-14T20:44:22.639Z,21.60
2022-12-14T20:46:50.993Z,21.30
2022-12-14T20:49:19.617Z,20.33
2022-12-14T20:51:46.840Z,21.80
2022-12-14T20:54:14.960Z,21.47
2022-12-14T20:56:41.015Z,20.30
2022-12-14T20:59:07.954Z,23.73
2022-12-14T21:01:36.381Z,26.90
2022-12-14T21:04:03.204Z,38.50
2022-12-14T21:06:29.556Z,30.80
2022-12-14T21:09:01.165Z,29.20
2022-12-14T21:11:46.553Z,26.00
2022-12-14T21:14:13.290Z,22.63
2022-12-14T21:16:39.914Z,19.37
2022-12-14T21:19:06.608Z,22.30
2022-12-14T21:21:32.810Z,21.17
2022-12-14T21:23:58.971Z,22.33
2022-12-14T21:26:27.925Z,20.57
2022-12-14T21:28:54.716Z,20.80
2022-12-14T21:31:21.333Z,20.00
2022-12-14T21:33:49.919Z,19.27
2022-12-14T21:36:16.263Z,20.17
2022-12-14T21:38:42.403Z,19.70
2022-12-14T21:41:28.858Z,20.93
2022-12-14T21:43:54.956Z,19.87
2022-12-14T21:46:23.625Z,20.70
2022-12-14T21:48:52.730Z,22.77
2022-12-14T21:51:18.941Z,21.70
2022-12-14T21:53:59.627Z,21.40
2022-12-14T21:56:48.137Z,20.93
2022-12-14T21:59:15.715Z,20.10
2022-12-14T22:01:42.011Z,21.77
2022-12-14T22:04:08.358Z,20.40
2022-12-14T22:06:34.707Z,20.30
2022-12-14T22:09:02.013Z,17.30
2022-12-14T22:11:28.572Z,18.70
2022-12-14T22:13:54.733Z,19.20
2022-12-14T22:16:20.901Z,19.03
2022-12-14T22:18:47.152Z,17.80
2022-12-14T22:21:13.198Z,19.27
2022-12-14T22:23:43.393Z,17.10
2022-12-14T22:26:09.934Z,19.20
2022-12-14T22:28:35.973Z,18.13
2022-12-14T22:31:03.226Z,18.47
2022-12-14T22:33:30.450Z,19.13
2022-12-14T22:35:57.691Z,16.47
2022-12-14T22:38:24.872Z,18.80
2022-12-14T22:40:51.166Z,17.73
2022-12-14T22:43:17.257Z,18.70
2022-12-14T22:45:43.392Z,18.60
2022-12-14T22:48:09.452Z,18.87
2022-12-14T22:50:35.479Z,19.77
2022-12-14T22:53:01.509Z,17.63
2022-12-14T22:55:30.264Z,18.57
2022-12-14T22:57:56.608Z,18.67
2022-12-14T23:00:22.678Z,18.37
2022-12-14T23:02:49.063Z,17.90
2022-12-14T23:05:16.107Z,19.87
2022-12-14T23:07:42.138Z,19.30
2022-12-14T23:10:27.024Z,18.83
2022-12-14T23:13:11.408Z,18.57
2022-12-14T23:15:55.812Z,17.00
2022-12-14T23:18:40.025Z,15.50
2022-12-14T23:21:28.430Z,15.40
2022-12-14T23:24:12.922Z,16.90
2022-12-14T23:26:57.758Z,17.33
2022-12-14T23:29:42.501Z,13.80
2022-12-14T23:32:26.918Z,15.87
2022-12-14T23:35:11.414Z,16.73
2022-12-14T23:37:56.192Z,17.10
2022-12-14T23:40:41.299Z,18.20
2022-12-14T23:43:30.877Z,17.87
2022-12-14T23:46:15.766Z,17.10
2022-12-14T23:49:00.563Z,17.43
2022-12-14T23:51:45.523Z,16.60
2022-12-14T23:54:30.383Z,17.63
2022-12-14T23:57:14.609Z,17.17
2022-12-14T23:59:59.030Z,17.40
